Aviation Digital Data Service (ADDS)

Output produced by METARs form (1348 UTC 25 June 2019)
found at http://www.aviationweather.gov/metar/data/
 
METAR text: KTUL 251253Z 17007KT 10SM FEW008 SCT250 23/21 A2996 RMK AO2 SLP137 T02280211
Conditions at: KTUL (TULSA , OK, US) observed 1253 UTC 25 June 2019
Temperature: 22.8°C (73°F)
Dewpoint: 21.1°C (70°F) [RH = 90%]
Pressure (altimeter): 29.96 inches Hg (1014.6 mb)
[Sea-level pressure: 1013.7 mb]
Winds: from the S (170 degrees) at 8 MPH (7 knots; 3.6 m/s)
Visibility: 10 or more miles (16+ km)
Ceiling: at least 12,000 feet AGL
Clouds: few clouds at 800 feet AGL
scattered clouds at 25000 feet AGL
Weather: no significant weather observed at this time

METAR text: KTUL 251153Z 12004KT 8SM FEW005 FEW250 20/19 A2994 RMK AO2 SLP131 T02000194 10217 20189 51010
Conditions at: KTUL (TULSA , OK, US) observed 1153 UTC 25 June 2019
Temperature: 20.0°C (68°F)
Dewpoint: 19.4°C (67°F) [RH = 96%]
Pressure (altimeter): 29.94 inches Hg (1014.0 mb)
[Sea-level pressure: 1013.1 mb]
Winds: from the ESE (120 degrees) at 5 MPH (4 knots; 2.1 m/s)
Visibility: 8 miles (13 km)
Ceiling: at least 12,000 feet AGL
Clouds: few clouds at 500 feet AGL
few clouds at 25000 feet AGL
Weather: no significant weather observed at this time

METAR text: KTUL 251148Z 12004KT 9SM FEW005 FEW250 20/19 A2994 RMK AO2
Conditions at: KTUL (TULSA , OK, US) observed 1148 UTC 25 June 2019
Temperature: 20.0°C (68°F)
Dewpoint: 19.0°C (66°F) [RH = 94%]
Pressure (altimeter): 29.94 inches Hg (1014.0 mb)
Winds: from the ESE (120 degrees) at 5 MPH (4 knots; 2.1 m/s)
Visibility: 9 miles (14 km)
Ceiling: at least 12,000 feet AGL
Clouds: few clouds at 500 feet AGL
few clouds at 25000 feet AGL
Weather: no significant weather observed at this time

METAR text: KTUL 251053Z 14005KT 10SM BKN250 19/19 A2993 RMK AO2 SLP126 T01940189
Conditions at: KTUL (TULSA , OK, US) observed 1053 UTC 25 June 2019
Temperature: 19.4°C (67°F)
Dewpoint: 18.9°C (66°F) [RH = 97%]
Pressure (altimeter): 29.93 inches Hg (1013.6 mb)
[Sea-level pressure: 1012.6 mb]
Winds: from the SE (140 degrees) at 6 MPH (5 knots; 2.6 m/s)
Visibility: 10 or more miles (16+ km)
Ceiling: 25000 feet AGL
Clouds: broken clouds at 25000 feet AGL
Weather: no significant weather observed at this time

METAR text: KTUL 250953Z 12003KT 10SM BKN250 21/19 A2991 RMK AO2 SLP121 T02060189
Conditions at: KTUL (TULSA , OK, US) observed 0953 UTC 25 June 2019
Temperature: 20.6°C (69°F)
Dewpoint: 18.9°C (66°F) [RH = 90%]
Pressure (altimeter): 29.91 inches Hg (1013.0 mb)
[Sea-level pressure: 1012.1 mb]
Winds: from the ESE (120 degrees) at 3 MPH (3 knots; 1.5 m/s)
Visibility: 10 or more miles (16+ km)
Ceiling: 25000 feet AGL
Clouds: broken clouds at 25000 feet AGL
Weather: no significant weather observed at this time

METAR text: KTUL 250853Z 16006KT 10SM BKN250 21/18 A2990 RMK AO2 SLP116 T02060183 56004
Conditions at: KTUL (TULSA , OK, US) observed 0853 UTC 25 June 2019
Temperature: 20.6°C (69°F)
Dewpoint: 18.3°C (65°F) [RH = 87%]
Pressure (altimeter): 29.90 inches Hg (1012.6 mb)
[Sea-level pressure: 1011.6 mb]
Winds: from the SSE (160 degrees) at 7 MPH (6 knots; 3.1 m/s)
Visibility: 10 or more miles (16+ km)
Ceiling: 25000 feet AGL
Clouds: broken clouds at 25000 feet AGL
Weather: no significant weather observed at this time

METAR text: KTUL 250753Z 17007KT 10SM OVC250 22/18 A2990 RMK AO2 SLP118 T02170183
Conditions at: KTUL (TULSA , OK, US) observed 0753 UTC 25 June 2019
Temperature: 21.7°C (71°F)
Dewpoint: 18.3°C (65°F) [RH = 81%]
Pressure (altimeter): 29.90 inches Hg (1012.6 mb)
[Sea-level pressure: 1011.8 mb]
Winds: from the S (170 degrees) at 8 MPH (7 knots; 3.6 m/s)
Visibility: 10 or more miles (16+ km)
Ceiling: 25000 feet AGL
Clouds: overcast cloud deck at 25000 feet AGL
Weather: no significant weather observed at this time

METAR text: KTUL 250653Z 17004KT 10SM OVC250 20/18 A2990 RMK AO2 SLP118 T02000178
Conditions at: KTUL (TULSA , OK, US) observed 0653 UTC 25 June 2019
Temperature: 20.0°C (68°F)
Dewpoint: 17.8°C (64°F) [RH = 87%]
Pressure (altimeter): 29.90 inches Hg (1012.6 mb)
[Sea-level pressure: 1011.8 mb]
Winds: from the S (170 degrees) at 5 MPH (4 knots; 2.1 m/s)
Visibility: 10 or more miles (16+ km)
Ceiling: 25000 feet AGL
Clouds: overcast cloud deck at 25000 feet AGL
Weather: no significant weather observed at this time

METAR text: KTUL 250553Z 13004KT 10SM OVC250 20/18 A2991 RMK AO2 SLP120 T02000178 10289 20200 402890194 51006
Conditions at: KTUL (TULSA , OK, US) observed 0553 UTC 25 June 2019
Temperature: 20.0°C (68°F)
Dewpoint: 17.8°C (64°F) [RH = 87%]
Pressure (altimeter): 29.91 inches Hg (1013.0 mb)
[Sea-level pressure: 1012.0 mb]
Winds: from the SE (130 degrees) at 5 MPH (4 knots; 2.1 m/s)
Visibility: 10 or more miles (16+ km)
Ceiling: 25000 feet AGL
Clouds: overcast cloud deck at 25000 feet AGL
Weather: no significant weather observed at this time

METAR text: KTUL 250453Z 16005KT 10SM OVC250 23/18 A2991 RMK AO2 SLP120 T02280178
Conditions at: KTUL (TULSA , OK, US) observed 0453 UTC 25 June 2019
Temperature: 22.8°C (73°F)
Dewpoint: 17.8°C (64°F) [RH = 73%]
Pressure (altimeter): 29.91 inches Hg (1013.0 mb)
[Sea-level pressure: 1012.0 mb]
Winds: from the SSE (160 degrees) at 6 MPH (5 knots; 2.6 m/s)
Visibility: 10 or more miles (16+ km)
Ceiling: 25000 feet AGL
Clouds: overcast cloud deck at 25000 feet AGL
Weather: no significant weather observed at this time

METAR text: KTUL 250353Z 17004KT 10SM FEW250 21/18 A2991 RMK AO2 SLP121 T02110183
Conditions at: KTUL (TULSA , OK, US) observed 0353 UTC 25 June 2019
Temperature: 21.1°C (70°F)
Dewpoint: 18.3°C (65°F) [RH = 84%]
Pressure (altimeter): 29.91 inches Hg (1013.0 mb)
[Sea-level pressure: 1012.1 mb]
Winds: from the S (170 degrees) at 5 MPH (4 knots; 2.1 m/s)
Visibility: 10 or more miles (16+ km)
Ceiling: at least 12,000 feet AGL
Clouds: few clouds at 25000 feet AGL
Weather: no significant weather observed at this time

METAR text: KTUL 250253Z 14005KT 10SM FEW250 23/18 A2989 RMK AO2 SLP114 T02330178 53008
Conditions at: KTUL (TULSA , OK, US) observed 0253 UTC 25 June 2019
Temperature: 23.3°C (74°F)
Dewpoint: 17.8°C (64°F) [RH = 71%]
Pressure (altimeter): 29.89 inches Hg (1012.3 mb)
[Sea-level pressure: 1011.4 mb]
Winds: from the SE (140 degrees) at 6 MPH (5 knots; 2.6 m/s)
Visibility: 10 or more miles (16+ km)
Ceiling: at least 12,000 feet AGL
Clouds: few clouds at 25000 feet AGL
Weather: no significant weather observed at this time

METAR text: KTUL 250153Z 10004KT 10SM FEW250 25/17 A2988 RMK AO2 SLP109 T02500172
Conditions at: KTUL (TULSA , OK, US) observed 0153 UTC 25 June 2019
Temperature: 25.0°C (77°F)
Dewpoint: 17.2°C (63°F) [RH = 62%]
Pressure (altimeter): 29.88 inches Hg (1011.9 mb)
[Sea-level pressure: 1010.9 mb]
Winds: from the E (100 degrees) at 5 MPH (4 knots; 2.1 m/s)
Visibility: 10 or more miles (16+ km)
Ceiling: at least 12,000 feet AGL
Clouds: few clouds at 25000 feet AGL
Weather: no significant weather observed at this time

METAR text: KTUL 250053Z 11003KT 10SM CLR 26/18 A2987 RMK AO2 SLP108 T02610183
Conditions at: KTUL (TULSA , OK, US) observed 0053 UTC 25 June 2019
Temperature: 26.1°C (79°F)
Dewpoint: 18.3°C (65°F) [RH = 62%]
Pressure (altimeter): 29.87 inches Hg (1011.6 mb)
[Sea-level pressure: 1010.8 mb]
Winds: from the ESE (110 degrees) at 3 MPH (3 knots; 1.5 m/s)
Visibility: 10 or more miles (16+ km)
Ceiling: at least 12,000 feet AGL
Clouds: sky clear below 12,000 feet AGL
Weather: no significant weather observed at this time

METAR text: KTUL 242353Z 04004KT 10SM CLR 29/18 A2986 RMK AO2 SLP104 T02890178 10289 20261 56010
Conditions at: KTUL (TULSA , OK, US) observed 2353 UTC 24 June 2019
Temperature: 28.9°C (84°F)
Dewpoint: 17.8°C (64°F) [RH = 51%]
Pressure (altimeter): 29.86 inches Hg (1011.3 mb)
[Sea-level pressure: 1010.4 mb]
Winds: from the NE (40 degrees) at 5 MPH (4 knots; 2.1 m/s)
Visibility: 10 or more miles (16+ km)
Ceiling: at least 12,000 feet AGL
Clouds: sky clear below 12,000 feet AGL
Weather: no significant weather observed at this time

METAR text: KTUL 242253Z VRB03KT 10SM CLR 29/17 A2987 RMK AO2 SLP106 T02890172
Conditions at: KTUL (TULSA , OK, US) observed 2253 UTC 24 June 2019
Temperature: 28.9°C (84°F)
Dewpoint: 17.2°C (63°F) [RH = 49%]
Pressure (altimeter): 29.87 inches Hg (1011.6 mb)
[Sea-level pressure: 1010.6 mb]
Winds: variable direction winds at 3 MPH (3 knots; 1.5 m/s)
Visibility: 10 or more miles (16+ km)
Ceiling: at least 12,000 feet AGL
Clouds: sky clear below 12,000 feet AGL
Weather: no significant weather observed at this time

METAR text: KTUL 242153Z 33005KT 10SM CLR 28/17 A2988 RMK AO2 SLP112 T02830172
Conditions at: KTUL (TULSA , OK, US) observed 2153 UTC 24 June 2019
Temperature: 28.3°C (83°F)
Dewpoint: 17.2°C (63°F) [RH = 51%]
Pressure (altimeter): 29.88 inches Hg (1011.9 mb)
[Sea-level pressure: 1011.2 mb]
Winds: from the NNW (330 degrees) at 6 MPH (5 knots; 2.6 m/s)
Visibility: 10 or more miles (16+ km)
Ceiling: at least 12,000 feet AGL
Clouds: sky clear below 12,000 feet AGL
Weather: no significant weather observed at this time

METAR text: KTUL 242053Z 36006KT 10SM CLR 28/17 A2989 RMK AO2 SLP116 T02830167 58007
Conditions at: KTUL (TULSA , OK, US) observed 2053 UTC 24 June 2019
Temperature: 28.3°C (83°F)
Dewpoint: 16.7°C (62°F) [RH = 49%]
Pressure (altimeter): 29.89 inches Hg (1012.3 mb)
[Sea-level pressure: 1011.6 mb]
Winds: from the N (360 degrees) at 7 MPH (6 knots; 3.1 m/s)
Visibility: 10 or more miles (16+ km)
Ceiling: at least 12,000 feet AGL
Clouds: sky clear below 12,000 feet AGL
Weather: no significant weather observed at this time

METAR text: KTUL 241953Z 31008KT 10SM FEW045 27/17 A2990 RMK AO2 SLP118 T02720167
Conditions at: KTUL (TULSA , OK, US) observed 1953 UTC 24 June 2019
Temperature: 27.2°C (81°F)
Dewpoint: 16.7°C (62°F) [RH = 53%]
Pressure (altimeter): 29.90 inches Hg (1012.6 mb)
[Sea-level pressure: 1011.8 mb]
Winds: from the NW (310 degrees) at 9 MPH (8 knots; 4.1 m/s)
Visibility: 10 or more miles (16+ km)
Ceiling: at least 12,000 feet AGL
Clouds: few clouds at 4500 feet AGL
Weather: no significant weather observed at this time

METAR text: KTUL 241853Z 31009KT 10SM FEW040 27/16 A2992 RMK AO2 SLP123 T02670161
Conditions at: KTUL (TULSA , OK, US) observed 1853 UTC 24 June 2019
Temperature: 26.7°C (80°F)
Dewpoint: 16.1°C (61°F) [RH = 52%]
Pressure (altimeter): 29.92 inches Hg (1013.3 mb)
[Sea-level pressure: 1012.3 mb]
Winds: from the NW (310 degrees) at 10 MPH (9 knots; 4.6 m/s)
Visibility: 10 or more miles (16+ km)
Ceiling: at least 12,000 feet AGL
Clouds: few clouds at 4000 feet AGL
Weather: no significant weather observed at this time

METAR text: KTUL 241753Z 33010KT 10SM FEW040 FEW250 26/16 A2992 RMK AO2 SLP123 T02610156 10267 20211 51005
Conditions at: KTUL (TULSA , OK, US) observed 1753 UTC 24 June 2019
Temperature: 26.1°C (79°F)
Dewpoint: 15.6°C (60°F) [RH = 52%]
Pressure (altimeter): 29.92 inches Hg (1013.3 mb)
[Sea-level pressure: 1012.3 mb]
Winds: from the NNW (330 degrees) at 12 MPH (10 knots; 5.1 m/s)
Visibility: 10 or more miles (16+ km)
Ceiling: at least 12,000 feet AGL
Clouds: few clouds at 4000 feet AGL
few clouds at 25000 feet AGL
Weather: no significant weather observed at this time

METAR text: KTUL 241653Z 33009KT 10SM FEW025 FEW032 FEW250 26/18 A2992 RMK AO2 SLP123 T02610178
Conditions at: KTUL (TULSA , OK, US) observed 1653 UTC 24 June 2019
Temperature: 26.1°C (79°F)
Dewpoint: 17.8°C (64°F) [RH = 60%]
Pressure (altimeter): 29.92 inches Hg (1013.3 mb)
[Sea-level pressure: 1012.3 mb]
Winds: from the NNW (330 degrees) at 10 MPH (9 knots; 4.6 m/s)
Visibility: 10 or more miles (16+ km)
Ceiling: at least 12,000 feet AGL
Clouds: few clouds at 2500 feet AGL
few clouds at 3200 feet AGL
few clouds at 25000 feet AGL
Weather: no significant weather observed at this time

METAR text: KTUL 241553Z 31008KT 10SM FEW026 SCT034 25/19 A2991 RMK AO2 SLP123 T02500189
Conditions at: KTUL (TULSA , OK, US) observed 1553 UTC 24 June 2019
Temperature: 25.0°C (77°F)
Dewpoint: 18.9°C (66°F) [RH = 69%]
Pressure (altimeter): 29.91 inches Hg (1013.0 mb)
[Sea-level pressure: 1012.3 mb]
Winds: from the NW (310 degrees) at 9 MPH (8 knots; 4.1 m/s)
Visibility: 10 or more miles (16+ km)
Ceiling: at least 12,000 feet AGL
Clouds: few clouds at 2600 feet AGL
scattered clouds at 3400 feet AGL
Weather: no significant weather observed at this time

METAR text: KTUL 241453Z 29007KT 10SM FEW022 SCT250 24/18 A2990 RMK AO2 SLP118 T02390183 53028
Conditions at: KTUL (TULSA , OK, US) observed 1453 UTC 24 June 2019
Temperature: 23.9°C (75°F)
Dewpoint: 18.3°C (65°F) [RH = 71%]
Pressure (altimeter): 29.90 inches Hg (1012.6 mb)
[Sea-level pressure: 1011.8 mb]
Winds: from the WNW (290 degrees) at 8 MPH (7 knots; 3.6 m/s)
Visibility: 10 or more miles (16+ km)
Ceiling: at least 12,000 feet AGL
Clouds: few clouds at 2200 feet AGL
scattered clouds at 25000 feet AGL
Weather: no significant weather observed at this time

METAR text: KTUL 241353Z 31010KT 10SM FEW015 FEW250 22/19 A2987 RMK AO2 SLP108 T02220189
Conditions at: KTUL (TULSA , OK, US) observed 1353 UTC 24 June 2019
Temperature: 22.2°C (72°F)
Dewpoint: 18.9°C (66°F) [RH = 82%]
Pressure (altimeter): 29.87 inches Hg (1011.6 mb)
[Sea-level pressure: 1010.8 mb]
Winds: from the NW (310 degrees) at 12 MPH (10 knots; 5.1 m/s)
Visibility: 10 or more miles (16+ km)
Ceiling: at least 12,000 feet AGL
Clouds: few clouds at 1500 feet AGL
few clouds at 25000 feet AGL
Weather: no significant weather observed at this time

METAR text: KTUL 241253Z 28011KT 10SM FEW009 FEW250 21/18 A2984 RMK AO2 SLP098 T02110183
Conditions at: KTUL (TULSA , OK, US) observed 1253 UTC 24 June 2019
Temperature: 21.1°C (70°F)
Dewpoint: 18.3°C (65°F) [RH = 84%]
Pressure (altimeter): 29.84 inches Hg (1010.6 mb)
[Sea-level pressure: 1009.8 mb]
Winds: from the W (280 degrees) at 13 MPH (11 knots; 5.7 m/s)
Visibility: 10 or more miles (16+ km)
Ceiling: at least 12,000 feet AGL
Clouds: few clouds at 900 feet AGL
few clouds at 25000 feet AGL
Weather: no significant weather observed at this time

METAR text: KTUL 241153Z 24007KT 10SM SCT009 21/20 A2982 RMK AO2 SLP091 70211 T02110200 10211 20194 53016
Conditions at: KTUL (TULSA , OK, US) observed 1153 UTC 24 June 2019
Temperature: 21.1°C (70°F)
Dewpoint: 20.0°C (68°F) [RH = 93%]
Pressure (altimeter): 29.82 inches Hg (1009.9 mb)
[Sea-level pressure: 1009.1 mb]
Winds: from the WSW (240 degrees) at 8 MPH (7 knots; 3.6 m/s)
Visibility: 10 or more miles (16+ km)
Ceiling: at least 12,000 feet AGL
Clouds: scattered clouds at 900 feet AGL
Weather: no significant weather observed at this time

METAR text: KTUL 241113Z 24007KT 10SM OVC006 21/20 A2982 RMK AO2 T02060200 $
Conditions at: KTUL (TULSA , OK, US) observed 1113 UTC 24 June 2019
Temperature: 20.6°C (69°F)
Dewpoint: 20.0°C (68°F) [RH = 96%]
Pressure (altimeter): 29.82 inches Hg (1009.9 mb)
Winds: from the WSW (240 degrees) at 8 MPH (7 knots; 3.6 m/s)
Visibility: 10 or more miles (16+ km)
Ceiling: 600 feet AGL
Clouds: overcast cloud deck at 600 feet AGL
Weather:
SOME DATA ABOVE MAY BE INACCURATE!!!
"$" is an indication the sensor requires maintenance

METAR text: KTUL 241053Z 25009KT 10SM OVC004 21/20 A2980 RMK AO2 SLP085 T02060200 $
Conditions at: KTUL (TULSA , OK, US) observed 1053 UTC 24 June 2019
Temperature: 20.6°C (69°F)
Dewpoint: 20.0°C (68°F) [RH = 96%]
Pressure (altimeter): 29.80 inches Hg (1009.2 mb)
[Sea-level pressure: 1008.5 mb]
Winds: from the WSW (250 degrees) at 10 MPH (9 knots; 4.6 m/s)
Visibility: 10 or more miles (16+ km)
Ceiling: 400 feet AGL
Clouds: overcast cloud deck at 400 feet AGL
Weather:
SOME DATA ABOVE MAY BE INACCURATE!!!
"$" is an indication the sensor requires maintenance

METAR text: KTUL 241039Z 25011G16KT 10SM OVC004 21/20 A2980 RMK AO2 T02060200 $
Conditions at: KTUL (TULSA , OK, US) observed 1039 UTC 24 June 2019
Temperature: 20.6°C (69°F)
Dewpoint: 20.0°C (68°F) [RH = 96%]
Pressure (altimeter): 29.80 inches Hg (1009.2 mb)
Winds: from the WSW (250 degrees) at 13 MPH (11 knots; 5.7 m/s)
gusting to 18 MPH (16 knots; 8.2 m/s)
Visibility: 10 or more miles (16+ km)
Ceiling: 400 feet AGL
Clouds: overcast cloud deck at 400 feet AGL
Weather:
SOME DATA ABOVE MAY BE INACCURATE!!!
"$" is an indication the sensor requires maintenance

METAR text: KTUL 240953Z 25003KT 10SM OVC007 19/19 A2978 RMK AO2 SLP078 T01940189 $
Conditions at: KTUL (TULSA , OK, US) observed 0953 UTC 24 June 2019
Temperature: 19.4°C (67°F)
Dewpoint: 18.9°C (66°F) [RH = 97%]
Pressure (altimeter): 29.78 inches Hg (1008.5 mb)
[Sea-level pressure: 1007.8 mb]
Winds: from the WSW (250 degrees) at 3 MPH (3 knots; 1.5 m/s)
Visibility: 10 or more miles (16+ km)
Ceiling: 700 feet AGL
Clouds: overcast cloud deck at 700 feet AGL
Weather:
SOME DATA ABOVE MAY BE INACCURATE!!!
"$" is an indication the sensor requires maintenance

METAR text: KTUL 240936Z VRB03KT 10SM BKN008 BKN200 19/19 A2978 RMK AO2 T01940189 $
Conditions at: KTUL (TULSA , OK, US) observed 0936 UTC 24 June 2019
Temperature: 19.4°C (67°F)
Dewpoint: 18.9°C (66°F) [RH = 97%]
Pressure (altimeter): 29.78 inches Hg (1008.5 mb)
Winds: variable direction winds at 3 MPH (3 knots; 1.5 m/s)
Visibility: 10 or more miles (16+ km)
Ceiling: 800 feet AGL
Clouds: broken clouds at 800 feet AGL
broken clouds at 20000 feet AGL
Weather:
SOME DATA ABOVE MAY BE INACCURATE!!!
"$" is an indication the sensor requires maintenance

METAR text: KTUL 240926Z VRB03KT 10SM SCT009 SCT200 19/19 A2977 RMK AO2 T01940189 $
Conditions at: KTUL (TULSA , OK, US) observed 0926 UTC 24 June 2019
Temperature: 19.4°C (67°F)
Dewpoint: 18.9°C (66°F) [RH = 97%]
Pressure (altimeter): 29.77 inches Hg (1008.2 mb)
Winds: variable direction winds at 3 MPH (3 knots; 1.5 m/s)
Visibility: 10 or more miles (16+ km)
Ceiling: at least 12,000 feet AGL
Clouds: scattered clouds at 900 feet AGL
scattered clouds at 20000 feet AGL
Weather:
SOME DATA ABOVE MAY BE INACCURATE!!!
"$" is an indication the sensor requires maintenance

METAR text: KTUL 240853Z 00000KT 10SM SCT200 19/18 A2977 RMK AO2 SLP075 T01940183 55014 $
Conditions at: KTUL (TULSA , OK, US) observed 0853 UTC 24 June 2019
Temperature: 19.4°C (67°F)
Dewpoint: 18.3°C (65°F) [RH = 93%]
Pressure (altimeter): 29.77 inches Hg (1008.2 mb)
[Sea-level pressure: 1007.5 mb]
Winds: calm
Visibility: 10 or more miles (16+ km)
Ceiling: at least 12,000 feet AGL
Clouds: scattered clouds at 20000 feet AGL
Weather:
SOME DATA ABOVE MAY BE INACCURATE!!!
"$" is an indication the sensor requires maintenance

METAR text: KTUL 240753Z 17011KT 10SM BKN200 20/19 A2972 RMK AO2 SLP058 T02000189 $
Conditions at: KTUL (TULSA , OK, US) observed 0753 UTC 24 June 2019
Temperature: 20.0°C (68°F)
Dewpoint: 18.9°C (66°F) [RH = 93%]
Pressure (altimeter): 29.72 inches Hg (1006.5 mb)
[Sea-level pressure: 1005.8 mb]
Winds: from the S (170 degrees) at 13 MPH (11 knots; 5.7 m/s)
Visibility: 10 or more miles (16+ km)
Ceiling: 20000 feet AGL
Clouds: broken clouds at 20000 feet AGL
Weather:
SOME DATA ABOVE MAY BE INACCURATE!!!
"$" is an indication the sensor requires maintenance

METAR text: KTUL 240653Z 24006KT 10SM BKN200 21/18 A2982 RMK AO2 SLP092 T02110183 $
Conditions at: KTUL (TULSA , OK, US) observed 0653 UTC 24 June 2019
Temperature: 21.1°C (70°F)
Dewpoint: 18.3°C (65°F) [RH = 84%]
Pressure (altimeter): 29.82 inches Hg (1009.9 mb)
[Sea-level pressure: 1009.2 mb]
Winds: from the WSW (240 degrees) at 7 MPH (6 knots; 3.1 m/s)
Visibility: 10 or more miles (16+ km)
Ceiling: 20000 feet AGL
Clouds: broken clouds at 20000 feet AGL
Weather:
SOME DATA ABOVE MAY BE INACCURATE!!!
"$" is an indication the sensor requires maintenance

METAR text: KTUL 240553Z 15003KT 10SM SCT070 BKN200 21/18 A2981 RMK AO2 SLP089 60000 T02110183 10228 20211 402500206 50017 $
Conditions at: KTUL (TULSA , OK, US) observed 0553 UTC 24 June 2019
Temperature: 21.1°C (70°F)
Dewpoint: 18.3°C (65°F) [RH = 84%]
Pressure (altimeter): 29.81 inches Hg (1009.6 mb)
[Sea-level pressure: 1008.9 mb]
Winds: from the SSE (150 degrees) at 3 MPH (3 knots; 1.5 m/s)
Visibility: 10 or more miles (16+ km)
Ceiling: 20000 feet AGL
Clouds: scattered clouds at 7000 feet AGL
broken clouds at 20000 feet AGL
Weather:
SOME DATA ABOVE MAY BE INACCURATE!!!
"$" is an indication the sensor requires maintenance

METAR text: KTUL 240453Z 16006KT 10SM BKN070 22/18 A2982 RMK AO2 SLP091 T02170183 $
Conditions at: KTUL (TULSA , OK, US) observed 0453 UTC 24 June 2019
Temperature: 21.7°C (71°F)
Dewpoint: 18.3°C (65°F) [RH = 81%]
Pressure (altimeter): 29.82 inches Hg (1009.9 mb)
[Sea-level pressure: 1009.1 mb]
Winds: from the SSE (160 degrees) at 7 MPH (6 knots; 3.1 m/s)
Visibility: 10 or more miles (16+ km)
Ceiling: 7000 feet AGL
Clouds: broken clouds at 7000 feet AGL
Weather:
SOME DATA ABOVE MAY BE INACCURATE!!!
"$" is an indication the sensor requires maintenance

METAR text: KTUL 240353Z 14006KT 10SM BKN070 22/21 A2982 RMK AO2 SLP090 T02220206 $
Conditions at: KTUL (TULSA , OK, US) observed 0353 UTC 24 June 2019
Temperature: 22.2°C (72°F)
Dewpoint: 20.6°C (69°F) [RH = 91%]
Pressure (altimeter): 29.82 inches Hg (1009.9 mb)
[Sea-level pressure: 1009.0 mb]
Winds: from the SE (140 degrees) at 7 MPH (6 knots; 3.1 m/s)
Visibility: 10 or more miles (16+ km)
Ceiling: 7000 feet AGL
Clouds: broken clouds at 7000 feet AGL
Weather:
SOME DATA ABOVE MAY BE INACCURATE!!!
"$" is an indication the sensor requires maintenance

METAR text: KTUL 240253Z 10003KT 10SM SCT065 BKN220 22/21 A2976 RMK AO2 SLP071 60000 T02170211 53003 $
Conditions at: KTUL (TULSA , OK, US) observed 0253 UTC 24 June 2019
Temperature: 21.7°C (71°F)
Dewpoint: 21.1°C (70°F) [RH = 96%]
Pressure (altimeter): 29.76 inches Hg (1007.9 mb)
[Sea-level pressure: 1007.1 mb]
Winds: from the E (100 degrees) at 3 MPH (3 knots; 1.5 m/s)
Visibility: 10 or more miles (16+ km)
Ceiling: 22000 feet AGL
Clouds: scattered clouds at 6500 feet AGL
broken clouds at 22000 feet AGL
Weather:
SOME DATA ABOVE MAY BE INACCURATE!!!
"$" is an indication the sensor requires maintenance

METAR text: KTUL 240216Z 09004KT 10SM SCT024 BKN031 BKN048 22/21 A2975 RMK AO2 T02220211 $
Conditions at: KTUL (TULSA , OK, US) observed 0216 UTC 24 June 2019
Temperature: 22.2°C (72°F)
Dewpoint: 21.1°C (70°F) [RH = 93%]
Pressure (altimeter): 29.75 inches Hg (1007.5 mb)
Winds: from the E (90 degrees) at 5 MPH (4 knots; 2.1 m/s)
Visibility: 10 or more miles (16+ km)
Ceiling: 3100 feet AGL
Clouds: scattered clouds at 2400 feet AGL
broken clouds at 3100 feet AGL
broken clouds at 4800 feet AGL
Weather:
SOME DATA ABOVE MAY BE INACCURATE!!!
"$" is an indication the sensor requires maintenance

METAR text: KTUL 240153Z 08004KT 9SM BKN022 BKN030 22/21 A2973 RMK AO2 RAE02 SLP061 P0000 T02220211 $
Conditions at: KTUL (TULSA , OK, US) observed 0153 UTC 24 June 2019
Temperature: 22.2°C (72°F)
Dewpoint: 21.1°C (70°F) [RH = 93%]
Pressure (altimeter): 29.73 inches Hg (1006.9 mb)
[Sea-level pressure: 1006.1 mb]
Winds: from the E (80 degrees) at 5 MPH (4 knots; 2.1 m/s)
Visibility: 9 miles (14 km)
Ceiling: 2200 feet AGL
Clouds: broken clouds at 2200 feet AGL
broken clouds at 3000 feet AGL
Weather:
SOME DATA ABOVE MAY BE INACCURATE!!!
"$" is an indication the sensor requires maintenance

Forecast for: KTUL (TULSA , OK, US)
Text: KTUL 251137Z 2512/2612 16005KT P6SM FEW005
Forecast period: 1200 to 1400 UTC 25 June 2019
Forecast type: FROM: standard forecast or significant change
Winds: from the SSE (160 degrees) at 6 MPH (5 knots; 2.6 m/s)
Visibility: 6 or more miles 10+ km)
Ceiling: at least 12,000 feet AGL
Clouds: few clouds at 500 feet AGL
Weather: no significant weather forecast for this period
Text: FM251400 19005KT P6SM FEW250
Forecast period: 1400 to 1800 UTC 25 June 2019
Forecast type: FROM: standard forecast or significant change
Winds: from the S (190 degrees) at 6 MPH (5 knots; 2.6 m/s)
Visibility: 6 or more miles 10+ km)
Ceiling: at least 12,000 feet AGL
Clouds: few clouds at 25000 feet AGL
Weather: no significant weather forecast for this period
Text: FM251800 19011KT P6SM FEW060 SCT250
Forecast period: 1800 UTC 25 June 2019 to 0100 UTC 26 June 2019
Forecast type: FROM: standard forecast or significant change
Winds: from the S (190 degrees) at 13 MPH (11 knots; 5.7 m/s)
Visibility: 6 or more miles 10+ km)
Ceiling: at least 12,000 feet AGL
Clouds: few clouds at 6000 feet AGL
scattered clouds at 25000 feet AGL
Weather: no significant weather forecast for this period
Text: FM260100 17010KT P6SM SCT250
Forecast period: 0100 to 0400 UTC 26 June 2019
Forecast type: FROM: standard forecast or significant change
Winds: from the S (170 degrees) at 12 MPH (10 knots; 5.1 m/s)
Visibility: 6 or more miles 10+ km)
Ceiling: at least 12,000 feet AGL
Clouds: scattered clouds at 25000 feet AGL
Weather: no significant weather forecast for this period
Text: FM260400 17008KT P6SM FEW120 BKN250
Forecast period: 0400 to 1200 UTC 26 June 2019
Forecast type: FROM: standard forecast or significant change
Winds: from the S (170 degrees) at 9 MPH (8 knots; 4.1 m/s)
Visibility: 6 or more miles 10+ km)
Ceiling: 25000 feet AGL
Clouds: few clouds at 12000 feet AGL
broken clouds at 25000 feet AGL
Weather: no significant weather forecast for this period